Weather at Rigolet Airport

Public forecast

Using degrees Celsius for public forecast. Weather courtesy of forecast.io.

Closest aviation weather report (METAR) to Rigolet Airport

Report is more than 6 hours old.

Closest report is Cartwright Airport, 58.3 nm (107.9 km) ESE.

2022/11/14 15:00 (retrieved 2 years ago)

CYCA 141500Z AUTO 21007KT 9SM OVC028 M06/M09 A2997 RMK SLP151

Closest aviation forecast (TAF) to Rigolet Airport

Forecast is more than 12 hours old.

Closest forecast is Cartwright Airport, 58.3 nm (107.9 km) ESE.

2023/02/22 20:00 (retrieved 1 year ago)

TAF CYCA 221940Z 2220/2308 34005KT 3SM -SN OVC012 TEMPO 2220/2223 P6SM NSW SCT012 BKN025 FM222300 32008KT 1 1/2SM -SN VV012 TEMPO 2223/2303 3SM -SN OVC020 BECMG 2223/2301 31012G22KT FM230300 30020G30KT 1SM -SN BLSN OVC020 TEMPO 2303/2308 3SM -SN BLSN OVC025 RMK FCST BASED ON AUTO OBS NXT FCST BY 230200Z